Time;durP1;ratioP1;P1;durP2;ratioP2;P2;SDS_P1;SDS_P2;PMS_P1;PMS_P2;Temp;Humidity;BMP_temperature;BMP_pressure;BME280_temperature;BME280_humidity;BME280_pressure;Samples;Min_cycle;Max_cycle;Signal;HPM_P1;HPM_P2
2022/11/22 00:00:09;;;;;;;5.50;2.40;;;4.30;77.30;;;2.33;100.00;94175.97;4966179;28;20717;-73
2022/11/22 00:02:36;;;;;;;4.95;2.40;;;4.30;77.50;;;2.35;100.00;94173.19;4965926;28;20194;-75
2022/11/22 00:05:02;;;;;;;4.10;2.28;;;4.40;77.70;;;2.39;100.00;94174.44;4931711;28;20533;-74
2022/11/22 00:07:28;;;;;;;3.90;1.83;;;4.40;77.60;;;2.41;100.00;94173.25;4926365;28;20630;-74
2022/11/22 00:09:58;;;;;;;4.55;2.17;;;4.40;77.40;;;2.43;100.00;94171.25;4928302;28;20440;-75
2022/11/22 00:12:24;;;;;;;4.30;2.10;;;4.50;77.50;;;2.46;100.00;94160.50;4926607;28;20412;-74
2022/11/22 00:14:50;;;;;;;4.40;2.05;;;4.50;77.70;;;2.47;100.00;94164.72;4932375;28;20413;-74
2022/11/22 00:17:16;;;;;;;3.03;2.10;;;4.50;77.90;;;2.50;100.00;94170.53;4892419;28;20757;-73
2022/11/22 00:19:42;;;;;;;4.53;2.20;;;4.60;77.80;;;2.53;100.00;94160.59;4875032;28;20444;-73
2022/11/22 00:22:08;;;;;;;6.72;2.80;;;4.60;77.60;;;2.56;100.00;94169.78;4875284;28;20374;-73
2022/11/22 00:24:34;;;;;;;7.75;3.20;;;4.60;77.60;;;2.58;100.00;94163.41;4890147;28;20398;-73
2022/11/22 00:27:00;;;;;;;11.32;4.03;;;4.60;77.80;;;2.60;100.00;94156.25;4892261;28;20346;-73
2022/11/22 00:29:26;;;;;;;14.57;5.20;;;4.60;77.50;;;2.64;100.00;94161.84;4893646;28;20237;-74
2022/11/22 00:31:55;;;;;;;9.75;3.70;;;4.70;77.60;;;2.67;100.00;94156.28;4875651;28;20319;-73
2022/11/22 00:34:21;;;;;;;6.07;3.08;;;4.70;77.60;;;2.67;100.00;94162.28;4883629;28;20452;-74
2022/11/22 00:36:47;;;;;;;3.70;2.13;;;4.70;77.10;;;2.70;100.00;94161.09;4899199;28;20580;-74
2022/11/22 00:39:13;;;;;;;3.72;2.20;;;4.70;77.30;;;2.69;100.00;94162.91;4936534;28;20351;-72
2022/11/22 00:41:39;;;;;;;3.85;2.53;;;4.70;77.30;;;2.72;100.00;94170.34;4890146;28;20378;-73
2022/11/22 00:44:05;;;;;;;6.43;2.40;;;4.70;77.60;;;2.76;100.00;94173.34;4889752;28;20481;-73
2022/11/22 00:46:32;;;;;;;5.55;2.30;;;4.80;77.20;;;2.78;100.00;94168.78;4940784;28;20362;-73
2022/11/22 00:48:58;;;;;;;5.95;2.33;;;4.80;77.00;;;2.81;100.00;94172.78;4939701;28;20480;-73
2022/11/22 00:51:24;;;;;;;4.65;2.10;;;4.80;77.30;;;2.82;100.00;94170.00;4944430;28;20862;-73
2022/11/22 00:53:50;;;;;;;3.83;1.98;;;4.80;76.80;;;2.83;100.00;94181.19;4909102;28;20609;-74
2022/11/22 00:56:16;;;;;;;3.65;2.10;;;4.80;77.10;;;2.85;100.00;94174.81;4939380;28;20272;-72
2022/11/22 00:58:42;;;;;;;5.43;2.70;;;4.80;77.00;;;2.85;100.00;94180.00;4925285;28;20313;-72
2022/11/22 01:01:08;;;;;;;4.10;2.20;;;4.80;76.90;;;2.87;100.00;94175.41;4892334;28;20355;-74
2022/11/22 01:03:34;;;;;;;3.30;2.13;;;4.90;76.80;;;2.88;100.00;94179.63;4908899;28;20626;-74
2022/11/22 01:06:00;;;;;;;6.57;2.53;;;4.90;76.90;;;2.88;100.00;94182.22;4894657;28;20355;-72
2022/11/22 01:08:26;;;;;;;5.50;3.00;;;4.90;77.10;;;2.89;100.00;94190.81;4936768;28;20437;-72
2022/11/22 01:10:57;;;;;;;7.00;3.53;;;4.90;77.20;;;2.88;100.00;94192.59;4907109;28;20362;-73
2022/11/22 01:13:24;;;;;;;5.43;2.72;;;4.80;77.20;;;2.86;100.00;94191.97;4909863;28;20444;-73
2022/11/22 01:15:50;;;;;;;6.45;3.03;;;4.70;77.40;;;2.85;100.00;94203.38;4907402;28;20465;-72
2022/11/22 01:18:16;;;;;;;4.57;2.75;;;4.70;77.50;;;2.81;100.00;94199.53;4900252;28;20203;-72
2022/11/22 01:20:42;;;;;;;5.28;2.88;;;4.60;77.50;;;2.77;100.00;94203.50;4920747;28;20389;-71
2022/11/22 01:23:08;;;;;;;3.70;2.72;;;4.60;77.60;;;2.76;100.00;94194.13;4902313;28;20264;-73
2022/11/22 01:25:35;;;;;;;4.07;2.88;;;4.60;77.80;;;2.76;100.00;94181.13;4936708;28;20439;-73
2022/11/22 01:28:01;;;;;;;4.93;2.85;;;4.60;77.90;;;2.75;100.00;94174.34;4922654;28;20323;-73
2022/11/22 01:30:27;;;;;;;5.30;2.83;;;4.70;77.90;;;2.77;100.00;94193.13;4925352;28;20341;-71
2022/11/22 01:32:53;;;;;;;3.55;2.60;;;4.70;78.20;;;2.78;100.00;94176.56;4910035;28;20338;-72
2022/11/22 01:35:19;;;;;;;5.75;2.75;;;4.70;78.30;;;2.79;100.00;94180.75;4924838;28;20370;-72
2022/11/22 01:37:45;;;;;;;5.43;2.97;;;4.70;78.50;;;2.81;100.00;94177.97;4924344;28;20507;-73
2022/11/22 01:40:11;;;;;;;5.03;3.05;;;4.70;78.50;;;2.81;100.00;94168.38;4957236;22;20017;-69
2022/11/22 01:42:55;;;;;;;5.25;2.60;;;4.70;78.20;;;2.82;100.00;94159.59;4906848;28;20348;-68
2022/11/22 01:45:31;;;;;;;4.68;2.67;;;4.80;78.40;;;2.84;100.00;94152.44;4876468;28;20324;-69
2022/11/22 01:48:12;;;;;;;4.38;2.83;;;4.80;78.50;;;2.86;100.00;94158.22;4928208;28;20821;-70
2022/11/22 01:50:41;;;;;;;6.55;3.15;;;4.80;79.10;;;2.88;100.00;94153.66;4918304;28;20391;-68
2022/11/22 01:53:11;;;;;;;4.85;2.88;;;4.90;79.30;;;2.91;100.00;94148.06;4904590;28;20363;-69
2022/11/22 01:55:38;;;;;;;5.57;3.53;;;5.00;79.40;;;2.95;100.00;94159.72;4907405;28;20453;-70
2022/11/22 01:58:04;;;;;;;5.10;3.13;;;5.00;79.60;;;2.96;100.00;94145.72;4902477;28;20664;-69
2022/11/22 02:00:30;;;;;;;4.40;3.10;;;5.00;78.90;;;2.98;100.00;94154.13;4877733;28;20393;-70
2022/11/22 02:02:59;;;;;;;4.70;2.95;;;5.10;79.20;;;3.01;100.00;94158.16;4876572;28;20317;-69
2022/11/22 02:05:28;;;;;;;6.15;2.88;;;5.00;79.00;;;3.02;100.00;94165.75;4881870;28;20471;-69
2022/11/22 02:08:29;;;;;;;4.45;2.47;;;5.00;79.40;;;3.02;100.00;94160.53;4902998;28;20576;-69
2022/11/22 02:10:55;;;;;;;4.18;2.58;;;4.90;79.40;;;3.03;100.00;94156.97;4909528;28;20552;-68
2022/11/22 02:13:21;;;;;;;4.85;3.10;;;5.00;79.40;;;3.03;100.00;94156.16;4876674;28;20355;-68
2022/11/22 02:15:50;;;;;;;4.82;2.90;;;5.10;79.60;;;3.05;100.00;94149.78;4877628;28;20327;-69
2022/11/22 02:18:16;;;;;;;5.80;2.60;;;5.10;79.90;;;3.07;100.00;94147.00;4872266;28;20376;-69
2022/11/22 02:20:43;;;;;;;5.60;2.88;;;5.10;79.70;;;3.11;100.00;94152.59;4874429;28;20523;-69
2022/11/22 02:23:23;;;;;;;5.25;2.70;;;5.10;79.60;;;3.12;100.00;94143.81;4857477;28;20427;-69
2022/11/22 02:25:56;;;;;;;4.35;2.97;;;5.20;79.60;;;3.15;100.00;94149.44;4904908;28;20348;-68
2022/11/22 02:28:22;;;;;;;7.38;3.50;;;5.20;79.60;;;3.15;100.00;94154.63;4894940;28;20664;-70
2022/11/22 02:30:48;;;;;;;6.68;3.65;;;5.10;79.20;;;3.15;100.00;94153.81;4876098;28;20451;-71
2022/11/22 02:33:14;;;;;;;4.75;3.40;;;5.10;79.50;;;3.15;100.00;94157.22;4876751;28;20552;-69
2022/11/22 02:35:40;;;;;;;6.22;3.00;;;5.10;79.60;;;3.17;100.00;94157.03;4876117;28;20326;-69
2022/11/22 02:38:18;;;;;;;6.70;3.72;;;5.10;79.50;;;3.20;100.00;94159.25;4877333;28;20355;-69
2022/11/22 02:40:53;;;;;;;9.48;4.43;;;5.20;79.60;;;3.22;100.00;94160.69;4893521;28;20353;-70
2022/11/22 02:43:25;;;;;;;7.88;3.20;;;5.20;79.90;;;3.27;100.00;94149.69;4915318;28;20579;-69
2022/11/22 02:45:52;;;;;;;4.90;2.80;;;5.30;79.80;;;3.30;100.00;94147.50;4874958;28;20363;-69
2022/11/22 02:48:18;;;;;;;5.60;2.90;;;5.40;79.80;;;3.36;100.00;94145.94;4887276;28;20417;-69
2022/11/22 02:50:45;;;;;;;4.65;2.60;;;5.40;79.80;;;3.39;100.00;94155.94;4890098;28;20476;-70
2022/11/22 02:53:11;;;;;;;6.03;3.20;;;5.50;79.90;;;3.45;100.00;94159.59;4883955;28;20368;-69
2022/11/22 02:55:37;;;;;;;6.28;3.25;;;5.50;79.90;;;3.47;100.00;94153.22;4887956;28;20324;-70
2022/11/22 02:58:04;;;;;;;5.93;2.67;;;5.60;80.20;;;3.52;100.00;94163.81;4872683;28;20361;-69
2022/11/22 03:00:32;;;;;;;4.72;2.80;;;5.60;79.90;;;3.55;100.00;94163.44;4906623;28;20332;-69
2022/11/22 03:03:01;;;;;;;7.65;3.67;;;5.60;79.90;;;3.57;100.00;94166.63;4873532;28;20363;-68
2022/11/22 03:05:27;;;;;;;5.93;2.90;;;5.50;80.10;;;3.58;100.00;94176.03;4878392;28;20324;-71
2022/11/22 03:07:53;;;;;;;4.38;2.92;;;5.40;80.40;;;3.59;100.00;94177.63;4897217;28;20036;-69
2022/11/22 03:10:22;;;;;;;6.93;2.63;;;5.50;80.50;;;3.62;100.00;94179.03;4895964;28;20347;-69
2022/11/22 03:12:48;;;;;;;4.90;2.50;;;5.50;80.60;;;3.61;100.00;94175.66;4906829;28;20371;-70
2022/11/22 03:15:14;;;;;;;4.25;2.70;;;5.50;80.70;;;3.63;100.00;94165.88;4907234;28;20342;-69
2022/11/22 03:17:40;;;;;;;4.10;2.60;;;5.50;80.80;;;3.64;100.00;94164.88;4892585;28;20363;-69
2022/11/22 03:20:09;;;;;;;4.25;2.45;;;5.60;80.90;;;3.65;100.00;94171.69;4875583;28;20570;-70
2022/11/22 03:22:35;;;;;;;4.38;2.88;;;5.60;81.00;;;3.67;100.00;94171.50;4898587;28;20525;-70
2022/11/22 03:25:01;;;;;;;5.30;2.50;;;5.60;81.20;;;3.67;100.00;94169.69;4879517;28;20335;-69
2022/11/22 03:27:27;;;;;;;4.80;2.50;;;5.60;81.40;;;3.71;100.00;94175.31;4876810;28;20368;-68
2022/11/22 03:29:54;;;;;;;4.70;2.22;;;5.60;81.50;;;3.74;100.00;94174.91;4876218;28;20548;-68
2022/11/22 03:32:20;;;;;;;4.68;2.20;;;5.70;81.50;;;3.77;100.00;94171.91;4874101;28;20588;-71
2022/11/22 03:34:46;;;;;;;12.93;4.60;;;5.70;81.40;;;3.81;100.00;94174.94;4870578;28;20344;-69
2022/11/22 03:37:12;;;;;;;14.02;7.70;;;5.80;81.80;;;3.84;100.00;94183.13;4880992;28;20405;-68
2022/11/22 03:39:38;;;;;;;5.60;3.58;;;5.90;82.10;;;3.89;100.00;94191.19;4920706;28;20441;-69
2022/11/22 03:42:04;;;;;;;6.15;2.92;;;5.90;82.20;;;3.92;100.00;94187.38;4889639;28;20356;-69
2022/11/22 03:44:30;;;;;;;3.65;2.30;;;6.00;82.20;;;3.96;100.00;94183.41;4880020;28;20518;-69
2022/11/22 03:46:57;;;;;;;15.95;8.77;;;6.10;82.20;;;3.99;100.00;94189.00;4880010;28;20568;-67
2022/11/22 03:49:23;;;;;;;39.35;23.60;;;6.10;82.30;;;4.02;100.00;94182.59;4871180;28;20292;-68
2022/11/22 03:51:49;;;;;;;6.22;3.92;;;6.10;81.90;;;4.03;100.00;94183.41;4910617;28;20453;-66
2022/11/22 03:54:15;;;;;;;4.47;2.25;;;6.00;81.50;;;4.00;100.00;94190.59;4895765;28;20372;-68
2022/11/22 03:56:41;;;;;;;5.38;2.38;;;5.90;82.10;;;4.00;100.00;94187.22;4904305;28;20387;-66
2022/11/22 03:59:07;;;;;;;3.65;2.17;;;5.90;82.50;;;4.02;100.00;94184.41;4886654;28;20510;-67
2022/11/22 04:01:33;;;;;;;5.15;2.47;;;5.90;82.60;;;4.05;100.00;94194.41;4907321;28;20363;-68
2022/11/22 04:04:02;;;;;;;4.90;2.50;;;6.00;82.50;;;4.05;100.00;94187.41;4877930;28;20379;-67
2022/11/22 04:06:28;;;;;;;5.60;2.55;;;6.10;82.80;;;4.06;100.00;94196.81;4879108;28;20544;-68
2022/11/22 04:08:54;;;;;;;4.30;2.60;;;6.10;82.70;;;4.09;100.00;94193.84;4909682;28;20340;-67
2022/11/22 04:11:20;;;;;;;4.43;2.53;;;6.10;82.80;;;4.10;100.00;94197.25;4878978;28;20355;-67
2022/11/22 04:16:31;;;;;;;16.20;12.23;;;6.10;82.60;;;4.13;100.00;94196.88;4899086;28;20861;-68
2022/11/22 04:18:57;;;;;;;56.70;33.15;;;6.20;82.50;;;4.14;100.00;94195.88;4891739;28;20319;-68
2022/11/22 04:21:35;;;;;;;16.45;11.70;;;6.20;82.60;;;4.17;100.00;94198.06;4925300;28;20279;-68
2022/11/22 04:26:51;;;;;;;4.63;2.97;;;6.20;82.70;;;4.17;100.00;94206.69;4900240;28;20678;-67
2022/11/22 04:29:18;;;;;;;9.68;6.70;;;6.20;82.80;;;4.18;100.00;94197.06;4894673;28;20506;-68
2022/11/22 04:34:30;;;;;;;15.10;9.13;;;6.20;82.90;;;4.22;100.00;94208.69;4892925;28;20389;-68
2022/11/22 04:37:00;;;;;;;5.18;3.63;;;6.30;83.20;;;4.24;100.00;94211.88;4876426;28;20346;-68
2022/11/22 04:39:26;;;;;;;6.97;5.00;;;6.30;83.00;;;4.27;100.00;94201.09;4876115;28;20319;-67
2022/11/22 04:44:40;;;;;;;3.88;2.20;;;6.30;82.80;;;4.29;100.00;94199.09;4898771;28;20398;-67
2022/11/22 04:47:11;;;;;;;4.78;2.42;;;6.40;82.80;;;4.30;100.00;94205.94;4892134;28;20436;-70
2022/11/22 04:49:37;;;;;;;4.70;1.88;;;6.30;82.70;;;4.31;100.00;94210.13;4893749;28;20260;-69
2022/11/22 04:54:48;;;;;;;3.67;1.80;;;6.30;83.00;;;4.33;100.00;94218.53;5001143;28;20048;-66
2022/11/22 04:57:14;;;;;;;5.78;1.80;;;6.30;83.20;;;4.33;100.00;94220.34;4995875;28;20033;-67
2022/11/22 04:59:40;;;;;;;3.60;1.98;;;6.20;83.40;;;4.35;100.00;94213.13;4995110;28;20041;-67
2022/11/22 05:02:05;;;;;;;4.30;1.85;;;6.20;83.50;;;4.36;100.00;94214.75;4978207;28;20060;-66
2022/11/22 05:04:31;;;;;;;3.15;1.80;;;6.30;83.60;;;4.38;100.00;94210.94;4978603;28;20117;-68
2022/11/22 05:06:57;;;;;;;3.33;1.92;;;6.30;83.80;;;4.38;100.00;94215.34;4995449;28;20040;-67
2022/11/22 05:09:23;;;;;;;6.10;1.90;;;6.30;83.70;;;4.40;100.00;94216.75;4995302;28;20149;-67
2022/11/22 05:11:49;;;;;;;3.33;1.67;;;6.30;83.70;;;4.42;100.00;94213.94;4995212;28;20124;-67
2022/11/22 05:14:14;;;;;;;5.00;2.28;;;6.40;83.70;;;4.44;100.00;94217.94;4977811;28;20322;-67
2022/11/22 05:16:40;;;;;;;5.07;2.03;;;6.50;83.80;;;4.47;100.00;94214.94;4978996;28;20040;-67
2022/11/22 05:19:06;;;;;;;3.47;2.10;;;6.50;83.60;;;4.49;100.00;94219.97;4990963;28;20049;-67
2022/11/22 05:21:34;;;;;;;4.43;2.15;;;6.50;83.60;;;4.52;100.00;94219.56;5024332;28;20064;-68
2022/11/22 05:24:00;;;;;;;3.63;1.98;;;6.60;83.50;;;4.54;100.00;94225.41;5008891;28;20099;-68
2022/11/22 05:26:32;;;;;;;3.05;2.00;;;6.60;83.50;;;4.55;100.00;94224.41;4993966;28;20045;-69
2022/11/22 05:28:58;;;;;;;4.43;2.15;;;6.60;83.40;;;4.56;100.00;94223.41;4994938;28;20040;-67
2022/11/22 05:31:26;;;;;;;2.92;1.90;;;6.60;83.40;;;4.58;100.00;94230.00;4978950;28;20091;-67
2022/11/22 05:33:52;;;;;;;4.32;1.83;;;6.60;83.40;;;4.61;100.00;94234.00;4979558;28;20025;-67
2022/11/22 05:36:19;;;;;;;4.55;1.73;;;6.60;83.30;;;4.59;100.00;94231.59;4993761;28;20141;-68
2022/11/22 05:38:44;;;;;;;4.22;2.25;;;6.60;83.50;;;4.59;100.00;94228.19;4987809;28;20033;-67
2022/11/22 05:41:11;;;;;;;5.05;2.10;;;6.60;83.80;;;4.60;100.00;94230.59;5027597;28;20024;-68
2022/11/22 05:43:40;;;;;;;3.53;2.05;;;6.50;83.80;;;4.58;100.00;94234.41;4999181;28;20045;-68
2022/11/22 05:46:14;;;;;;;4.07;1.98;;;6.50;83.90;;;4.57;100.00;94238.81;4983103;28;20044;-67
2022/11/22 05:48:43;;;;;;;4.13;1.60;;;6.40;84.20;;;4.58;100.00;94242.22;4995680;28;20527;-68
2022/11/22 05:51:11;;;;;;;4.22;1.48;;;6.40;84.40;;;4.57;100.00;94238.81;4994808;28;20099;-67
2022/11/22 05:53:37;;;;;;;2.60;1.73;;;6.40;84.60;;;4.58;100.00;94237.00;4992250;28;20099;-67
2022/11/22 05:56:12;;;;;;;3.50;2.10;;;6.40;84.70;;;4.58;100.00;94235.22;4980055;28;20041;-70
2022/11/22 05:58:38;;;;;;;4.90;1.98;;;6.40;84.80;;;4.59;100.00;94228.19;5023486;28;20030;-68
2022/11/22 06:01:15;;;;;;;4.88;1.77;;;6.50;84.70;;;4.63;100.00;94232.00;4991458;28;20036;-67
2022/11/22 06:03:41;;;;;;;5.03;1.80;;;6.60;84.70;;;4.63;100.00;94226.81;4976290;28;20118;-68
2022/11/22 06:06:07;;;;;;;4.72;2.22;;;6.60;84.60;;;4.65;100.00;94240.41;4995981;28;20454;-67
2022/11/22 06:08:35;;;;;;;5.10;2.22;;;6.50;84.90;;;4.66;100.00;94238.63;4994090;28;20098;-69
2022/11/22 06:11:09;;;;;;;3.60;2.05;;;6.60;84.90;;;4.66;100.00;94236.81;4994601;28;20124;-69
2022/11/22 06:13:36;;;;;;;3.55;2.50;;;6.50;85.00;;;4.68;100.00;94239.22;4994330;28;20092;-68
2022/11/22 06:16:03;;;;;;;4.85;2.90;;;6.50;85.20;;;4.67;100.00;94243.63;5011001;28;20029;-68
2022/11/22 06:18:28;;;;;;;7.13;2.97;;;6.50;85.10;;;4.68;100.00;94247.03;5009819;28;20120;-68
2022/11/22 06:21:34;;;;;;;5.97;4.05;;;6.50;85.20;;;4.70;100.00;94248.44;5010730;28;20025;-68
2022/11/22 06:24:00;;;;;;;7.70;4.68;;;6.60;85.20;;;4.71;100.00;94244.03;5027070;28;20040;-68
2022/11/22 06:26:26;;;;;;;13.63;8.30;;;6.60;85.10;;;4.75;100.00;94243.47;4993632;28;20047;-70
2022/11/22 06:28:53;;;;;;;19.05;12.50;;;6.70;85.10;;;4.74;100.00;94244.44;4993738;28;20025;-68
2022/11/22 06:31:21;;;;;;;12.73;8.13;;;6.70;85.10;;;4.78;100.00;94252.69;4994545;28;20052;-68
2022/11/22 06:33:47;;;;;;;7.85;5.88;;;6.80;85.10;;;4.80;100.00;94256.69;5002870;28;20128;-68
2022/11/22 06:36:18;;;;;;;10.30;5.25;;;6.80;84.80;;;4.82;100.00;94256.47;4993710;28;20044;-68
2022/11/22 06:38:44;;;;;;;7.68;4.60;;;6.80;84.80;;;4.83;100.00;94264.09;4977518;28;20032;-68
2022/11/22 06:41:12;;;;;;;11.38;5.00;;;6.80;84.80;;;4.85;100.00;94264.69;4994100;28;20387;-68
2022/11/22 06:43:39;;;;;;;7.95;4.57;;;6.90;84.70;;;4.86;100.00;94258.47;4978298;28;20036;-68
2022/11/22 06:46:05;;;;;;;7.50;4.15;;;6.90;84.60;;;4.87;100.00;94267.91;4977755;28;20029;-67
2022/11/22 06:48:33;;;;;;;5.45;3.70;;;6.90;84.70;;;4.89;100.00;94268.50;4977231;28;20025;-69
2022/11/22 06:51:03;;;;;;;7.22;4.05;;;6.90;84.50;;;4.91;100.00;94276.13;5010627;28;20544;-68
2022/11/22 06:53:30;;;;;;;6.38;3.60;;;7.00;84.60;;;4.91;100.00;94276.91;4994460;28;20044;-69
2022/11/22 06:56:09;;;;;;;5.30;3.80;;;6.90;84.40;;;4.91;100.00;94287.34;4977176;28;20032;-68
2022/11/22 06:58:35;;;;;;;6.07;3.42;;;7.00;84.60;;;4.93;100.00;94287.94;4994421;28;20341;-68
2022/11/22 07:01:09;;;;;;;5.80;3.60;;;7.00;84.50;;;4.96;100.00;94293.75;4994045;28;20506;-68
2022/11/22 07:03:35;;;;;;;9.65;3.38;;;7.00;84.50;;;4.96;100.00;94294.56;4979087;28;20024;-68
2022/11/22 07:06:01;;;;;;;5.97;3.13;;;7.00;84.40;;;4.97;100.00;94297.97;4994212;28;20125;-68
2022/11/22 07:08:27;;;;;;;6.70;3.35;;;7.00;84.50;;;4.99;100.00;94309.81;4976615;28;20053;-68
2022/11/22 07:10:53;;;;;;;6.88;3.00;;;7.00;84.60;;;5.00;100.00;94313.22;5009926;28;20518;-68
2022/11/22 07:13:19;;;;;;;5.55;3.10;;;7.10;84.60;;;5.02;100.00;94311.22;4994037;28;20120;-68
2022/11/22 07:15:58;;;;;;;7.15;3.33;;;7.10;84.60;;;5.06;100.00;94320.25;4977617;28;20033;-68
2022/11/22 07:18:24;;;;;;;5.32;2.90;;;7.10;84.60;;;5.07;100.00;94324.44;4993521;28;20044;-68
2022/11/22 07:20:50;;;;;;;5.88;3.22;;;7.10;84.60;;;5.09;100.00;94319.84;4977374;28;20033;-68
2022/11/22 07:23:16;;;;;;;4.22;2.97;;;7.10;84.60;;;5.11;100.00;94320.44;4993869;28;20037;-69
2022/11/22 07:25:45;;;;;;;6.03;3.40;;;7.10;84.70;;;5.13;100.00;94326.25;4993729;28;20037;-68
2022/11/22 07:28:12;;;;;;;7.28;3.97;;;7.10;84.60;;;5.15;100.00;94329.47;4976368;28;20146;-68
2022/11/22 07:30:39;;;;;;;8.23;4.63;;;7.20;84.70;;;5.17;100.00;94332.66;4993662;28;20406;-70
2022/11/22 07:33:05;;;;;;;6.70;4.75;;;7.20;84.60;;;5.18;100.00;94335.06;5010023;28;20029;-68
2022/11/22 07:35:30;;;;;;;8.30;5.68;;;7.20;84.80;;;5.22;100.00;94335.50;4977306;28;20447;-68
2022/11/22 07:37:56;;;;;;;12.23;7.13;;;7.30;84.90;;;5.25;100.00;94335.09;4976906;28;20140;-68
2022/11/22 07:40:22;;;;;;;9.93;6.45;;;7.30;84.80;;;5.26;100.00;94336.69;4993144;28;20052;-68
2022/11/22 07:42:47;;;;;;;9.32;5.80;;;7.30;84.60;;;5.30;100.00;94331.88;4978052;28;20112;-68
2022/11/22 07:45:13;;;;;;;9.23;5.00;;;7.40;84.60;;;5.31;100.00;94338.72;4977769;28;20100;-67
2022/11/22 07:47:39;;;;;;;7.10;4.65;;;7.30;84.70;;;5.35;100.00;94345.13;4993531;28;20056;-68
2022/11/22 07:50:06;;;;;;;5.35;3.65;;;7.40;84.60;;;5.39;100.00;94343.72;4993290;28;20124;-68
2022/11/22 07:52:31;;;;;;;6.25;3.60;;;7.50;84.50;;;5.40;100.00;94346.13;4994133;28;20021;-68
2022/11/22 07:54:57;;;;;;;8.73;4.15;;;7.50;84.50;;;5.45;100.00;94348.94;4994361;28;20104;-68
2022/11/22 07:57:23;;;;;;;5.70;3.45;;;7.60;84.40;;;5.48;100.00;94356.38;4994060;28;20053;-68
2022/11/22 07:59:48;;;;;;;5.70;3.58;;;7.60;84.20;;;5.51;100.00;94361.19;4993141;28;20517;-68
2022/11/22 08:02:14;;;;;;;6.90;3.97;;;7.60;84.30;;;5.56;100.00;94365.00;4993339;28;20029;-67
2022/11/22 08:04:40;;;;;;;9.23;4.70;;;7.70;84.10;;;5.59;100.00;94373.22;5026628;28;20041;-68
2022/11/22 08:07:06;;;;;;;5.40;3.88;;;7.70;84.10;;;5.62;100.00;94377.22;4994460;28;20061;-68
2022/11/22 08:09:31;;;;;;;5.65;3.75;;;7.70;84.00;;;5.66;100.00;94378.41;5013377;28;20125;-68
2022/11/22 08:11:57;;;;;;;7.10;4.22;;;7.70;84.00;;;5.67;100.00;94380.84;5014123;28;20043;-68
2022/11/22 08:14:23;;;;;;;6.68;4.30;;;7.70;84.00;;;5.69;100.00;94373.63;4980669;28;20047;-68
2022/11/22 08:16:49;;;;;;;7.10;4.40;;;7.70;84.00;;;5.72;100.00;94372.41;5013783;28;20029;-68
2022/11/22 08:19:16;;;;;;;8.02;4.80;;;7.70;84.00;;;5.73;100.00;94384.47;4996622;28;20087;-68
2022/11/22 08:21:46;;;;;;;7.82;4.45;;;7.70;84.00;;;5.74;100.00;94383.44;4981178;28;20136;-67
2022/11/22 08:24:12;;;;;;;6.22;4.50;;;7.70;83.80;;;5.76;100.00;94392.69;4997035;28;20029;-67
2022/11/22 08:26:38;;;;;;;6.47;4.53;;;7.80;83.90;;;5.78;100.00;94389.88;4981024;28;20056;-67
2022/11/22 08:29:10;;;;;;;7.50;4.68;;;7.80;84.00;;;5.80;100.00;94390.47;4996256;28;20095;-68
2022/11/22 08:31:36;;;;;;;6.93;5.47;;;7.80;83.70;;;5.81;100.00;94402.50;4980382;28;20836;-68
2022/11/22 08:34:02;;;;;;;8.05;4.82;;;7.80;84.00;;;5.83;100.00;94405.72;4996991;28;20033;-68
2022/11/22 08:36:27;;;;;;;7.10;5.28;;;7.80;83.80;;;5.84;100.00;94417.75;5003844;28;20037;-68
2022/11/22 08:38:53;;;;;;;9.45;6.07;;;7.80;83.80;;;5.86;100.00;94426.19;5012593;28;20037;-68
2022/11/22 08:41:19;;;;;;;9.63;6.13;;;7.80;84.20;;;5.87;100.00;94427.78;5012652;28;20048;-67
2022/11/22 08:43:45;;;;;;;8.60;6.05;;;7.90;83.90;;;5.89;100.00;94431.03;5029619;28;20564;-68
2022/11/22 08:46:11;;;;;;;9.23;6.53;;;7.90;83.80;;;5.88;100.00;94429.38;5012436;28;20275;-68
2022/11/22 08:48:37;;;;;;;12.90;6.65;;;7.80;84.20;;;5.92;100.00;94429.84;5028588;28;20033;-69
2022/11/22 08:51:08;;;;;;;11.40;6.85;;;7.90;84.00;;;5.93;100.00;94427.03;5012554;28;20086;-68
2022/11/22 08:53:34;;;;;;;;;;;8.00;83.70;;;5.96;100.00;94433.66;5013130;28;20028;-67
2022/11/22 08:56:01;;;;;;;10.27;6.68;;;8.00;83.60;;;5.96;100.00;94437.06;5012998;28;19957;-69
2022/11/22 08:58:30;;;;;;;12.32;6.82;;;7.90;83.70;;;6.01;100.00;94436.47;5011429;28;20144;-68
2022/11/22 09:00:56;;;;;;;10.13;5.85;;;8.10;83.80;;;6.03;100.00;94432.63;5029274;28;20422;-68
2022/11/22 09:03:22;;;;;;;10.82;5.80;;;8.10;83.50;;;6.08;100.00;94432.03;5012654;28;20127;-68
2022/11/22 09:05:48;;;;;;;7.90;5.18;;;8.10;83.20;;;6.13;100.00;94434.88;5012040;28;20087;-67
2022/11/22 09:08:13;;;;;;;7.18;5.40;;;8.30;83.00;;;6.21;100.00;94444.28;5010687;28;20037;-68
2022/11/22 09:10:39;;;;;;;8.18;5.85;;;8.40;82.50;;;6.25;100.00;94435.03;5028126;28;20567;-67
2022/11/22 09:13:05;;;;;;;10.05;5.80;;;8.40;82.30;;;6.32;100.00;94446.25;5028564;28;20422;-68
2022/11/22 09:15:31;;;;;;;12.05;6.18;;;8.50;82.50;;;6.40;100.00;94449.47;5028276;28;20128;-69
2022/11/22 09:18:01;;;;;;;7.80;5.47;;;8.60;82.20;;;6.48;100.00;94445.84;5011289;28;20073;-68
2022/11/22 09:20:27;;;;;;;6.07;5.28;;;8.60;81.30;;;6.55;100.00;94451.03;5010156;28;20029;-68
2022/11/22 09:22:53;;;;;;;8.35;5.43;;;8.60;81.20;;;6.60;100.00;94454.66;5044794;28;20085;-68
2022/11/22 09:25:18;;;;;;;8.25;4.80;;;8.70;81.20;;;6.67;100.00;94454.66;5028748;28;20032;-68
2022/11/22 09:27:44;;;;;;;9.13;4.95;;;8.80;81.10;;;6.72;100.00;94463.47;5010816;28;20481;-68
2022/11/22 09:30:10;;;;;;;8.10;4.88;;;8.80;80.90;;;6.76;100.00;94454.22;5011513;28;20459;-68
2022/11/22 09:32:36;;;;;;;8.50;5.13;;;8.90;80.90;;;6.81;100.00;94456.22;5011820;28;20095;-67
2022/11/22 09:35:02;;;;;;;7.95;5.13;;;8.90;80.70;;;6.84;100.00;94465.47;5004513;28;20360;-68
2022/11/22 09:37:28;;;;;;;7.55;5.18;;;8.90;80.50;;;6.86;100.00;94469.47;4995761;28;20056;-68
2022/11/22 09:39:53;;;;;;;9.32;4.60;;;8.90;80.50;;;6.91;100.00;94466.25;5011166;28;20041;-68
2022/11/22 09:42:34;;;;;;;8.15;4.53;;;8.90;80.50;;;6.92;100.00;94470.47;5011001;28;20127;-68
2022/11/22 09:45:06;;;;;;;7.40;4.65;;;8.80;80.60;;;6.91;100.00;94477.50;5061208;28;20040;-68
2022/11/22 09:48:13;;;;;;;8.45;5.00;;;8.80;80.60;;;6.93;100.00;94479.91;5027641;28;20044;-67
2022/11/22 09:51:13;;;;;;;7.40;4.85;;;8.90;80.40;;;6.90;100.00;94475.09;5039071;28;20033;-67
2022/11/22 09:53:59;;;;;;;9.38;5.50;;;8.80;80.50;;;6.91;100.00;94482.72;5004508;28;20047;-68
2022/11/22 09:56:25;;;;;;;10.70;5.10;;;8.80;80.60;;;6.90;100.00;94477.69;5059842;28;20045;-68
2022/11/22 09:58:56;;;;;;;8.38;5.28;;;8.80;80.30;;;6.88;100.00;94480.53;5026654;28;20036;-67
2022/11/22 10:01:37;;;;;;;9.25;4.85;;;8.70;80.30;;;6.88;100.00;94475.28;5027099;28;20215;-67
2022/11/22 10:04:15;;;;;;;8.00;5.13;;;8.70;80.50;;;6.89;100.00;94483.94;5027050;28;20562;-68
2022/11/22 10:06:44;;;;;;;9.93;4.80;;;8.70;80.70;;;6.93;100.00;94490.34;5026881;28;20075;-68
2022/11/22 10:09:46;;;;;;;7.75;4.63;;;8.90;80.70;;;6.98;100.00;94493.16;5010162;28;20140;-67
2022/11/22 10:12:51;;;;;;;7.97;4.95;;;9.00;80.70;;;6.98;100.00;94493.16;5041987;28;20135;-68
2022/11/22 10:15:47;;;;;;;9.48;4.55;;;8.90;80.30;;;6.97;100.00;94484.50;5039325;28;20073;-67
2022/11/22 10:18:21;;;;;;;11.70;5.25;;;9.00;80.30;;;7.00;100.00;94488.50;5025755;28;20251;-68
2022/11/22 10:20:46;;;;;;;10.43;4.97;;;9.00;80.30;;;7.02;100.00;94489.13;5026630;28;20036;-68
2022/11/22 10:23:23;;;;;;;11.80;4.80;;;9.00;80.40;;;7.05;100.00;94483.50;5010678;28;20190;-68
2022/11/22 10:26:24;;;;;;;7.03;5.10;;;9.00;80.40;;;7.07;100.00;94476.25;5010208;28;20182;-67
2022/11/22 10:28:53;;;;;;;;;;;9.10;80.60;;;7.09;100.00;94474.22;5010600;28;20033;-67
2022/11/22 10:31:43;;;;;;;7.57;4.45;;;9.10;80.50;;;7.13;100.00;94483.25;5024753;28;19916;-67
2022/11/22 10:34:39;;;;;;;8.30;3.47;;;9.10;78.80;;;7.14;100.00;94481.44;4997878;28;20103;-69
2022/11/22 10:37:23;;;;;;;7.47;2.78;;;9.10;76.80;;;7.17;100.00;94484.44;5006652;28;20163;-67
2022/11/22 10:39:52;;;;;;;6.75;2.88;;;9.10;77.10;;;7.21;100.00;94483.00;5010769;28;20056;-67
2022/11/22 10:42:25;;;;;;;8.15;2.45;;;9.20;76.20;;;7.27;100.00;94481.41;5025932;28;20045;-68
2022/11/22 10:45:27;;;;;;;7.72;2.20;;;9.30;76.20;;;7.36;100.00;94478.31;4994532;28;20029;-67